createdAt,value
2023-04-09T00:00:42.474Z,7.72
2023-04-09T00:03:09.251Z,8.38
2023-04-09T00:05:40.308Z,8.43
2023-04-09T00:08:07.850Z,8.63
2023-04-09T00:10:34.645Z,7.88
2023-04-09T00:13:01.398Z,7.88
2023-04-09T00:15:31.654Z,8.10
2023-04-09T00:17:59.540Z,8.20
2023-04-09T00:20:26.441Z,8.77
2023-04-09T00:22:53.236Z,8.27
2023-04-09T00:25:20.361Z,8.23
2023-04-09T00:27:47.226Z,8.90
2023-04-09T00:30:14.182Z,8.40
2023-04-09T00:32:41.078Z,8.38
2023-04-09T00:35:08.558Z,8.45
2023-04-09T00:37:35.335Z,8.63
2023-04-09T00:40:02.164Z,8.65
2023-04-09T00:42:35.003Z,9.15
2023-04-09T00:45:01.877Z,8.43
2023-04-09T00:47:29.708Z,8.43
2023-04-09T00:49:57.051Z,8.68
2023-04-09T00:52:24.821Z,8.43
2023-04-09T00:54:52.112Z,8.65
2023-04-09T00:57:19.276Z,8.50
2023-04-09T00:59:46.342Z,8.25
2023-04-09T01:02:13.269Z,8.70
2023-04-09T01:04:42.163Z,7.82
2023-04-09T01:07:13.509Z,8.77
2023-04-09T01:10:04.708Z,8.90
2023-04-09T01:13:08.753Z,7.97
2023-04-09T01:15:41.342Z,8.93
2023-04-09T01:18:23.203Z,8.35
2023-04-09T01:21:16.536Z,8.60
2023-04-09T01:23:58.750Z,9.30
2023-04-09T01:26:48.008Z,8.45
2023-04-09T01:29:16.897Z,9.05
2023-04-09T01:31:44.479Z,8.73
2023-04-09T01:34:11.913Z,9.18
2023-04-09T01:36:40.127Z,9.00
2023-04-09T01:39:07.414Z,9.27
2023-04-09T01:41:35.629Z,9.13
2023-04-09T01:44:03.908Z,8.73
2023-04-09T01:46:31.613Z,8.98
2023-04-09T01:48:58.908Z,9.38
2023-04-09T01:51:27.334Z,9.63
2023-04-09T01:53:54.369Z,9.73
2023-04-09T01:56:21.381Z,9.30
2023-04-09T01:58:48.199Z,9.43
2023-04-09T02:01:32.133Z,9.10
2023-04-09T02:04:02.789Z,9.52
2023-04-09T02:07:06.575Z,9.52
2023-04-09T02:09:36.738Z,9.00
2023-04-09T02:12:06.487Z,10.07
2023-04-09T02:17:00.684Z,9.63
2023-04-09T02:19:41.878Z,9.77
2023-04-09T02:22:09.046Z,9.25
2023-04-09T02:24:36.500Z,9.52
2023-04-09T02:27:04.179Z,9.10
2023-04-09T02:29:31.388Z,9.57
2023-04-09T02:31:58.513Z,9.75
2023-04-09T02:34:25.987Z,9.98
2023-04-09T02:36:52.740Z,9.55
2023-04-09T02:39:19.482Z,10.07
2023-04-09T02:41:46.228Z,10.00
2023-04-09T02:44:12.985Z,10.18
2023-04-09T02:46:40.720Z,9.98
2023-04-09T02:49:07.461Z,10.40
2023-04-09T02:51:37.237Z,10.05
2023-04-09T02:54:04.589Z,9.98
2023-04-09T02:56:31.399Z,10.32
2023-04-09T02:58:58.233Z,10.13
2023-04-09T03:01:25.233Z,10.10
2023-04-09T03:03:52.213Z,10.73
2023-04-09T03:06:19.122Z,9.68
2023-04-09T03:08:45.867Z,10.63
2023-04-09T03:11:13.647Z,10.25
2023-04-09T03:13:40.389Z,10.73
2023-04-09T03:16:08.472Z,10.68
2023-04-09T03:18:35.253Z,10.32
2023-04-09T03:21:08.939Z,10.82
2023-04-09T03:23:39.322Z,10.32
2023-04-09T03:26:07.855Z,10.53
2023-04-09T03:28:42.311Z,10.38
2023-04-09T03:31:09.111Z,10.55
2023-04-09T03:33:37.990Z,10.85
2023-04-09T03:36:05.309Z,10.38
2023-04-09T03:38:46.322Z,10.85
2023-04-09T03:41:24.396Z,10.57
2023-04-09T03:43:51.680Z,10.77
2023-04-09T03:46:23.557Z,11.10
2023-04-09T03:48:51.814Z,10.70
2023-04-09T03:51:19.424Z,10.33
2023-04-09T03:53:51.670Z,9.90
2023-04-09T03:56:18.569Z,10.35
2023-04-09T03:58:45.500Z,10.18
2023-04-09T04:01:14.476Z,9.95
2023-04-09T04:03:52.400Z,10.38
2023-04-09T04:06:22.768Z,9.93
2023-04-09T04:09:12.466Z,10.13
2023-04-09T04:12:03.391Z,10.43
2023-04-09T04:14:48.861Z,10.32
2023-04-09T04:17:25.482Z,10.25
2023-04-09T04:19:54.058Z,9.75
2023-04-09T04:22:24.207Z,9.98
2023-04-09T04:24:54.147Z,10.15
2023-04-09T04:27:22.642Z,10.93
2023-04-09T04:29:50.305Z,9.98
2023-04-09T04:32:35.805Z,10.50
2023-04-09T04:35:07.509Z,10.40
2023-04-09T04:37:35.102Z,10.20
2023-04-09T04:40:03.780Z,9.93
2023-04-09T04:42:33.502Z,10.70
2023-04-09T04:45:04.560Z,9.98
2023-04-09T04:47:39.236Z,10.02
2023-04-09T04:50:07.323Z,9.38
2023-04-09T04:52:43.831Z,10.13
2023-04-09T04:55:11.788Z,10.00
2023-04-09T04:57:38.666Z,9.70
2023-04-09T05:00:06.473Z,10.90
2023-04-09T05:02:33.585Z,10.00
2023-04-09T05:05:15.406Z,10.20
2023-04-09T05:07:51.722Z,10.35
2023-04-09T05:10:18.935Z,10.40
2023-04-09T05:12:46.360Z,9.82
2023-04-09T05:15:20.674Z,10.10
2023-04-09T05:17:47.430Z,9.65
2023-04-09T05:20:15.812Z,9.88
2023-04-09T05:23:05.825Z,10.13
2023-04-09T05:25:39.956Z,10.15
2023-04-09T05:28:11.707Z,10.75
2023-04-09T05:30:40.389Z,11.10
2023-04-09T05:33:08.809Z,10.65
2023-04-09T05:35:39.088Z,10.85
2023-04-09T05:38:06.464Z,10.07
2023-04-09T05:40:35.358Z,10.38
2023-04-09T05:43:04.893Z,12.00
2023-04-09T05:45:41.359Z,10.10
2023-04-09T05:48:08.558Z,10.40
2023-04-09T05:50:47.112Z,10.57
2023-04-09T05:53:21.805Z,10.40
2023-04-09T05:55:51.993Z,10.07
2023-04-09T05:58:22.520Z,9.68
2023-04-09T06:00:51.678Z,10.90
2023-04-09T06:03:21.694Z,10.77
2023-04-09T06:05:51.005Z,10.02
2023-04-09T06:08:18.943Z,9.73
2023-04-09T06:10:47.419Z,10.30
2023-04-09T06:13:15.950Z,10.48
2023-04-09T06:15:42.845Z,10.07
2023-04-09T06:18:09.784Z,10.65
2023-04-09T06:20:36.603Z,10.38
2023-04-09T06:23:03.475Z,9.88
2023-04-09T06:25:30.621Z,10.38
2023-04-09T06:27:57.491Z,9.60
2023-04-09T06:30:24.380Z,10.35
2023-04-09T06:32:55.018Z,10.52
2023-04-09T06:35:23.026Z,10.35
2023-04-09T06:37:49.885Z,10.38
2023-04-09T06:40:16.829Z,10.05
2023-04-09T06:42:43.607Z,10.13
2023-04-09T06:45:19.280Z,9.90
2023-04-09T06:47:46.267Z,10.65
2023-04-09T06:50:13.099Z,14.57
2023-04-09T06:52:40.161Z,19.77
2023-04-09T06:55:07.250Z,19.92
2023-04-09T06:57:34.098Z,20.83
2023-04-09T07:00:01.134Z,20.25
2023-04-09T07:02:28.452Z,21.45
2023-04-09T07:04:55.609Z,21.20
2023-04-09T07:07:24.291Z,20.90
2023-04-09T07:09:53.134Z,20.58
2023-04-09T07:12:30.368Z,21.42
2023-04-09T07:15:01.312Z,20.85
2023-04-09T07:17:38.668Z,21.40
2023-04-09T07:20:06.274Z,21.10
2023-04-09T07:22:33.043Z,21.40
2023-04-09T07:24:59.953Z,21.38
2023-04-09T07:27:28.553Z,21.17
2023-04-09T07:29:56.931Z,21.13
2023-04-09T07:32:24.886Z,20.73
2023-04-09T07:34:52.697Z,21.33
2023-04-09T07:37:19.953Z,21.45
2023-04-09T07:39:47.734Z,19.67
2023-04-09T07:42:14.761Z,20.92
2023-04-09T07:44:41.708Z,20.42
2023-04-09T07:47:09.031Z,20.27
2023-04-09T07:49:37.990Z,18.83
2023-04-09T07:52:05.663Z,19.30
2023-04-09T07:54:34.013Z,18.05
2023-04-09T07:57:04.196Z,18.50
2023-04-09T07:59:32.184Z,18.08
2023-04-09T08:01:59.704Z,17.50
2023-04-09T08:04:28.073Z,16.90
2023-04-09T08:06:55.281Z,18.08
2023-04-09T08:09:22.432Z,16.75
2023-04-09T08:11:49.604Z,17.77
2023-04-09T08:14:18.180Z,17.30
2023-04-09T08:16:47.587Z,16.98
2023-04-09T08:19:16.823Z,17.00
2023-04-09T08:21:44.650Z,15.82
2023-04-09T08:24:12.358Z,15.57
2023-04-09T08:26:40.477Z,16.17
2023-04-09T08:29:08.629Z,15.63
2023-04-09T08:31:37.635Z,15.95
2023-04-09T08:34:05.661Z,16.98
2023-04-09T08:36:35.132Z,15.70
2023-04-09T08:39:03.562Z,14.77
2023-04-09T08:41:31.225Z,14.40
2023-04-09T08:43:59.818Z,14.75
2023-04-09T08:46:28.996Z,16.10
2023-04-09T08:48:57.520Z,15.98
2023-04-09T08:51:25.388Z,15.68
2023-04-09T08:54:00.776Z,13.80
2023-04-09T08:56:30.901Z,14.32
2023-04-09T08:58:57.766Z,13.30
2023-04-09T09:01:32.569Z,14.00
2023-04-09T09:04:03.877Z,12.45
2023-04-09T09:06:36.376Z,12.57
2023-04-09T09:09:08.116Z,12.68
2023-04-09T09:11:42.849Z,12.48
2023-04-09T09:14:11.576Z,12.07
2023-04-09T09:16:43.380Z,12.50
2023-04-09T09:19:28.292Z,13.18
2023-04-09T09:21:57.753Z,13.50
2023-04-09T09:24:25.241Z,13.35
2023-04-09T09:26:52.626Z,14.05
2023-04-09T09:29:20.126Z,14.65
2023-04-09T09:31:49.651Z,13.95
2023-04-09T09:34:17.591Z,14.55
2023-04-09T09:36:45.505Z,17.95
2023-04-09T09:39:13.224Z,15.25
2023-04-09T09:41:41.828Z,13.35
2023-04-09T09:44:10.038Z,14.77
2023-04-09T09:46:42.351Z,13.07
2023-04-09T09:49:09.813Z,13.15
2023-04-09T09:51:37.890Z,12.23
2023-04-09T09:54:07.844Z,12.48
2023-04-09T09:56:39.564Z,12.13
2023-04-09T09:59:23.966Z,13.98
2023-04-09T10:01:59.083Z,13.55
2023-04-09T10:04:29.817Z,12.65
2023-04-09T10:06:56.998Z,12.43
2023-04-09T10:09:24.363Z,13.32
2023-04-09T10:11:51.527Z,12.48
2023-04-09T10:14:19.072Z,11.88
2023-04-09T10:16:46.691Z,13.25
2023-04-09T10:19:15.128Z,12.02
2023-04-09T10:21:54.759Z,10.80
2023-04-09T10:24:27.173Z,11.50
2023-04-09T10:27:00.125Z,12.27
2023-04-09T10:29:30.193Z,11.27
2023-04-09T10:32:09.578Z,10.73
2023-04-09T10:34:39.783Z,10.50
2023-04-09T10:37:14.127Z,11.20
2023-04-09T10:39:45.605Z,11.40
2023-04-09T10:42:15.206Z,11.20
2023-04-09T10:44:42.545Z,13.45
2023-04-09T10:47:10.221Z,15.75
2023-04-09T10:49:39.054Z,15.18
2023-04-09T10:52:13.727Z,13.50
2023-04-09T10:54:44.058Z,11.73
2023-04-09T10:57:19.830Z,11.63
2023-04-09T10:59:54.476Z,11.77
2023-04-09T11:02:40.318Z,11.40
2023-04-09T11:05:19.125Z,11.50
2023-04-09T11:07:49.870Z,12.20
2023-04-09T11:10:16.663Z,10.52
2023-04-09T11:12:43.410Z,11.65
2023-04-09T11:15:18.341Z,11.70
2023-04-09T11:17:46.968Z,10.15
2023-04-09T11:20:15.286Z,10.07
2023-04-09T11:22:42.149Z,9.37
2023-04-09T11:25:09.293Z,8.80
2023-04-09T11:27:39.334Z,9.90
2023-04-09T11:30:06.687Z,9.77
2023-04-09T11:32:33.742Z,8.80
2023-04-09T11:35:00.984Z,9.88
2023-04-09T11:37:27.821Z,9.68
2023-04-09T11:39:56.791Z,10.05
2023-04-09T11:42:25.837Z,9.43
2023-04-09T11:44:53.099Z,10.35
2023-04-09T11:47:20.265Z,9.70
2023-04-09T11:49:47.265Z,10.10
2023-04-09T11:52:16.631Z,10.13
2023-04-09T11:54:49.389Z,10.75
2023-04-09T11:57:17.364Z,10.40
2023-04-09T11:59:44.209Z,10.35
2023-04-09T12:02:10.991Z,10.13
2023-04-09T12:04:37.837Z,17.40
2023-04-09T12:07:09.239Z,15.32
2023-04-09T12:09:47.816Z,9.85
2023-04-09T12:12:19.242Z,10.05
2023-04-09T12:14:47.529Z,10.10
2023-04-09T12:17:14.379Z,9.93
2023-04-09T12:19:41.565Z,9.10
2023-04-09T12:22:08.331Z,10.07
2023-04-09T12:24:35.279Z,11.25
2023-04-09T12:27:02.421Z,11.02
2023-04-09T12:29:29.892Z,11.07
2023-04-09T12:31:56.688Z,10.40
2023-04-09T12:34:23.423Z,11.07
2023-04-09T12:36:50.130Z,11.10
2023-04-09T12:39:16.845Z,10.77
2023-04-09T12:41:43.555Z,10.55
2023-04-09T12:44:10.278Z,11.13
2023-04-09T12:46:37.175Z,10.27
2023-04-09T12:49:04.213Z,10.15
2023-04-09T12:51:31.078Z,10.82
2023-04-09T12:53:57.978Z,11.05
2023-04-09T12:56:24.901Z,10.57
2023-04-09T12:58:52.529Z,11.00
2023-04-09T13:01:19.574Z,10.02
2023-04-09T13:03:46.656Z,10.70
2023-04-09T13:06:13.615Z,10.82
2023-04-09T13:08:40.367Z,10.43
2023-04-09T13:11:07.210Z,11.10
2023-04-09T13:13:34.605Z,10.55
2023-04-09T13:16:02.176Z,9.68
2023-04-09T13:18:29.004Z,9.95
2023-04-09T13:20:56.109Z,9.43
2023-04-09T13:23:22.909Z,9.82
2023-04-09T13:25:49.676Z,10.18
2023-04-09T13:28:16.947Z,10.20
2023-04-09T13:30:43.690Z,10.52
2023-04-09T13:33:10.472Z,10.10
2023-04-09T13:35:37.247Z,10.38
2023-04-09T13:38:03.979Z,11.00
2023-04-09T13:40:30.743Z,10.40
2023-04-09T13:42:57.669Z,10.18
2023-04-09T13:45:24.525Z,10.60
2023-04-09T13:47:51.337Z,9.75
2023-04-09T13:50:18.329Z,9.82
2023-04-09T13:52:45.243Z,9.30
2023-04-09T13:55:12.083Z,10.23
2023-04-09T13:57:38.901Z,10.27
2023-04-09T14:00:06.854Z,9.90
2023-04-09T14:02:33.724Z,9.90
2023-04-09T14:05:00.638Z,8.88
2023-04-09T14:07:27.362Z,8.30
2023-04-09T14:09:54.099Z,9.07
2023-04-09T14:12:21.212Z,9.40
2023-04-09T14:14:48.003Z,8.45
2023-04-09T14:17:14.774Z,8.77
2023-04-09T14:19:41.491Z,8.02
2023-04-09T14:22:08.876Z,8.48
2023-04-09T14:24:40.071Z,8.50
2023-04-09T14:27:07.739Z,9.02
2023-04-09T14:29:34.916Z,8.57
2023-04-09T14:32:01.718Z,9.52
2023-04-09T14:34:31.702Z,8.73
2023-04-09T14:36:58.471Z,7.95
2023-04-09T14:39:25.529Z,8.63
2023-04-09T14:41:52.383Z,9.07
2023-04-09T14:44:19.157Z,8.63
2023-04-09T14:46:46.096Z,8.52
2023-04-09T14:49:13.170Z,8.20
2023-04-09T14:51:40.009Z,8.32
2023-04-09T14:54:06.794Z,8.85
2023-04-09T14:56:33.610Z,9.27
2023-04-09T14:59:00.562Z,9.07
2023-04-09T15:01:28.073Z,8.48
2023-04-09T15:03:55.262Z,8.57
2023-04-09T15:06:22.470Z,8.32
2023-04-09T15:08:49.254Z,8.50
2023-04-09T15:11:16.666Z,8.63
2023-04-09T15:13:43.413Z,7.88
2023-04-09T15:16:10.395Z,7.72
2023-04-09T15:18:37.480Z,8.18
2023-04-09T15:21:04.394Z,9.25
2023-04-09T15:23:31.117Z,9.40
2023-04-09T15:25:57.870Z,8.75
2023-04-09T15:28:24.629Z,8.60
2023-04-09T15:30:51.342Z,8.43
2023-04-09T15:33:18.104Z,7.70
2023-04-09T15:35:45.183Z,7.47
2023-04-09T15:38:11.991Z,7.78
2023-04-09T15:40:40.784Z,7.60
2023-04-09T15:43:08.249Z,7.60
2023-04-09T15:45:34.989Z,8.48
2023-04-09T15:48:01.902Z,8.23
2023-04-09T15:50:28.912Z,8.43
2023-04-09T15:52:56.233Z,7.85
2023-04-09T15:55:23.721Z,8.20
2023-04-09T15:57:50.553Z,8.43
2023-04-09T16:00:17.348Z,7.72
2023-04-09T16:02:44.106Z,8.23
2023-04-09T16:05:10.823Z,8.18
2023-04-09T16:07:38.313Z,7.63
2023-04-09T16:10:05.591Z,8.70
2023-04-09T16:12:32.364Z,8.60
2023-04-09T16:14:59.191Z,7.95
2023-04-09T16:17:25.970Z,7.88
2023-04-09T16:19:52.912Z,8.10
2023-04-09T16:22:19.675Z,8.00
2023-04-09T16:24:46.418Z,8.32
2023-04-09T16:27:14.657Z,8.20
2023-04-09T16:29:42.160Z,8.38
2023-04-09T16:32:09.149Z,8.30
2023-04-09T16:34:36.263Z,7.80
2023-04-09T16:37:03.669Z,7.72
2023-04-09T16:39:31.220Z,8.25
2023-04-09T16:41:58.387Z,8.55
2023-04-09T16:44:26.036Z,8.30
2023-04-09T16:46:53.360Z,8.38
2023-04-09T16:49:20.460Z,8.70
2023-04-09T16:51:48.020Z,8.88
2023-04-09T16:54:15.070Z,8.10
2023-04-09T16:56:42.012Z,8.50
2023-04-09T16:59:08.963Z,8.55
2023-04-09T17:01:36.037Z,8.07
2023-04-09T17:04:03.303Z,8.30
2023-04-09T17:06:30.441Z,7.82
2023-04-09T17:08:57.440Z,7.68
2023-04-09T17:11:24.493Z,8.05
2023-04-09T17:13:51.701Z,8.13
2023-04-09T17:16:18.825Z,7.97
2023-04-09T17:18:45.786Z,7.30
2023-04-09T17:21:12.753Z,6.20
2023-04-09T17:23:40.308Z,6.60
2023-04-09T17:26:07.612Z,6.30
2023-04-09T17:28:34.934Z,6.05
2023-04-09T17:31:02.096Z,5.40
2023-04-09T17:33:29.131Z,5.65
2023-04-09T17:35:57.672Z,5.57
2023-04-09T17:38:26.972Z,5.88
2023-04-09T17:40:53.869Z,5.40
2023-04-09T17:43:20.780Z,5.25
2023-04-09T17:45:47.531Z,5.45
2023-04-09T17:48:14.435Z,5.13
2023-04-09T17:50:41.237Z,5.07
2023-04-09T17:53:08.475Z,4.97
2023-04-09T17:55:35.717Z,4.82
2023-04-09T17:58:03.832Z,4.97
2023-04-09T18:00:32.482Z,4.80
2023-04-09T18:03:00.022Z,5.15
2023-04-09T18:05:27.109Z,5.43
2023-04-09T18:07:56.430Z,5.20
2023-04-09T18:10:23.558Z,4.88
2023-04-09T18:12:50.695Z,5.00
2023-04-09T18:15:18.691Z,4.68
2023-04-09T18:17:46.219Z,4.78
2023-04-09T18:20:15.283Z,5.10
2023-04-09T18:22:43.228Z,5.05
2023-04-09T18:25:10.556Z,5.00
2023-04-09T18:27:37.692Z,4.78
2023-04-09T18:30:04.990Z,4.85
2023-04-09T18:32:32.415Z,5.05
2023-04-09T18:34:59.379Z,5.50
2023-04-09T18:37:27.096Z,5.40
2023-04-09T18:39:54.098Z,5.18
2023-04-09T18:42:20.985Z,5.63
2023-04-09T18:44:47.860Z,5.43
2023-04-09T18:47:14.662Z,5.13
2023-04-09T18:49:45.190Z,4.97
2023-04-09T18:52:12.291Z,5.10
2023-04-09T18:54:39.205Z,5.13
2023-04-09T18:57:06.904Z,5.07
2023-04-09T18:59:34.913Z,5.30
2023-04-09T19:02:05.029Z,5.10
2023-04-09T19:04:39.586Z,5.25
2023-04-09T19:07:07.056Z,7.38
2023-04-09T19:09:34.616Z,8.35
2023-04-09T19:12:04.119Z,6.88
2023-04-09T19:14:30.986Z,6.35
2023-04-09T19:16:58.730Z,6.00
2023-04-09T19:19:25.672Z,6.28
2023-04-09T19:21:52.578Z,6.15
2023-04-09T19:24:19.370Z,6.55
2023-04-09T19:26:46.220Z,6.05
2023-04-09T19:29:13.081Z,6.00
2023-04-09T19:31:41.478Z,6.22
2023-04-09T19:34:10.661Z,6.40
2023-04-09T19:36:37.547Z,5.60
2023-04-09T19:39:05.715Z,6.25
2023-04-09T19:41:32.692Z,6.22
2023-04-09T19:44:01.208Z,6.20
2023-04-09T19:46:28.328Z,6.15
2023-04-09T19:48:56.681Z,6.13
2023-04-09T19:51:23.766Z,6.40
2023-04-09T19:53:50.750Z,5.75
2023-04-09T19:56:17.680Z,6.07
2023-04-09T19:58:45.094Z,5.80
2023-04-09T20:01:12.113Z,5.40
2023-04-09T20:03:42.232Z,5.50
2023-04-09T20:06:10.268Z,5.90
2023-04-09T20:08:38.056Z,5.75
2023-04-09T20:11:05.373Z,5.40
2023-04-09T20:13:33.189Z,5.50
2023-04-09T20:16:00.695Z,5.40
2023-04-09T20:18:28.597Z,5.43
2023-04-09T20:20:55.473Z,5.90
2023-04-09T20:23:24.450Z,5.95
2023-04-09T20:25:55.213Z,5.53
2023-04-09T20:28:22.284Z,5.20
2023-04-09T20:30:49.366Z,5.75
2023-04-09T20:33:17.658Z,5.75
2023-04-09T20:35:44.602Z,5.90
2023-04-09T20:38:11.382Z,5.72
2023-04-09T20:40:38.194Z,5.50
2023-04-09T20:43:05.284Z,5.32
2023-04-09T20:45:32.217Z,5.50
2023-04-09T20:47:59.148Z,5.35
2023-04-09T20:50:26.083Z,5.82
2023-04-09T20:52:52.850Z,5.78
2023-04-09T20:55:19.846Z,5.18
2023-04-09T20:57:46.654Z,6.00
2023-04-09T21:00:14.056Z,5.90
2023-04-09T21:02:41.212Z,5.82
2023-04-09T21:05:21.352Z,6.18
2023-04-09T21:07:50.847Z,5.88
2023-04-09T21:10:17.724Z,5.67
2023-04-09T21:12:44.528Z,5.40
2023-04-09T21:15:11.887Z,5.38
2023-04-09T21:17:38.654Z,6.03
2023-04-09T21:20:06.236Z,5.75
2023-04-09T21:22:34.798Z,5.43
2023-04-09T21:25:03.166Z,5.80
2023-04-09T21:27:30.253Z,5.60
2023-04-09T21:29:57.449Z,5.97
2023-04-09T21:32:25.226Z,5.60
2023-04-09T21:34:52.141Z,6.00
2023-04-09T21:37:18.942Z,6.15
2023-04-09T21:39:46.000Z,5.90
2023-04-09T21:42:12.810Z,6.07
2023-04-09T21:44:39.716Z,5.75
2023-04-09T21:47:09.029Z,5.93
2023-04-09T21:52:14.361Z,5.15
2023-04-09T21:54:42.220Z,5.78
2023-04-09T21:57:09.262Z,6.15
2023-04-09T21:59:36.391Z,5.47
2023-04-09T22:02:06.750Z,5.40
2023-04-09T22:04:35.275Z,5.30
2023-04-09T22:07:03.253Z,5.67
2023-04-09T22:09:31.700Z,6.00
2023-04-09T22:11:59.473Z,5.40
2023-04-09T22:14:29.504Z,5.57
2023-04-09T22:16:58.224Z,5.80
2023-04-09T22:19:26.228Z,6.18
2023-04-09T22:21:53.542Z,5.75
2023-04-09T22:24:26.602Z,5.60
2023-04-09T22:26:53.695Z,5.57
2023-04-09T22:29:20.420Z,5.65
2023-04-09T22:31:47.192Z,5.97
2023-04-09T22:34:20.981Z,5.75
2023-04-09T22:36:48.907Z,5.70
2023-04-09T22:39:15.695Z,5.85
2023-04-09T22:41:42.441Z,6.07
2023-04-09T22:44:09.657Z,5.47
2023-04-09T22:46:36.920Z,5.70
2023-04-09T22:49:05.541Z,5.53
2023-04-09T22:51:34.655Z,6.10
2023-04-09T22:54:01.990Z,5.72
2023-04-09T22:56:30.135Z,6.28
2023-04-09T22:58:56.854Z,5.80
2023-04-09T23:01:23.691Z,5.80
2023-04-09T23:03:50.813Z,5.93
2023-04-09T23:06:17.719Z,6.03
2023-04-09T23:08:44.570Z,5.95
2023-04-09T23:11:11.614Z,6.40
2023-04-09T23:13:38.799Z,5.78
2023-04-09T23:16:07.031Z,5.50
2023-04-09T23:18:35.375Z,6.07
2023-04-09T23:21:09.379Z,5.93
2023-04-09T23:23:36.886Z,5.32
2023-04-09T23:26:03.930Z,5.72
2023-04-09T23:28:31.004Z,6.00
2023-04-09T23:30:57.793Z,5.70
2023-04-09T23:33:24.550Z,5.70
2023-04-09T23:35:51.429Z,5.63
2023-04-09T23:38:18.284Z,5.78
2023-04-09T23:40:47.245Z,6.10
2023-04-09T23:43:14.020Z,5.47
2023-04-09T23:45:40.789Z,5.70
2023-04-09T23:48:08.921Z,6.15
2023-04-09T23:50:39.245Z,6.03
2023-04-09T23:53:06.612Z,6.25
2023-04-09T23:55:37.844Z,6.22
2023-04-09T23:58:05.270Z,6.20
